sensor_id;sensor_type;location;lat;lon;timestamp;P1;durP1;ratioP1;P2;durP2;ratioP2
76608;SDS011;65928;53.936;27.540;2024-03-22T00:02:05;21.77;;;14.20;;
76608;SDS011;65928;53.936;27.540;2024-03-22T00:04:30;25.83;;;13.93;;
76608;SDS011;65928;53.936;27.540;2024-03-22T00:06:55;23.90;;;14.18;;
76608;SDS011;65928;53.936;27.540;2024-03-22T00:09:21;22.95;;;14.20;;
76608;SDS011;65928;53.936;27.540;2024-03-22T00:11:46;23.95;;;14.48;;
76608;SDS011;65928;53.936;27.540;2024-03-22T00:14:11;22.88;;;14.52;;
76608;SDS011;65928;53.936;27.540;2024-03-22T00:16:37;22.45;;;14.57;;
76608;SDS011;65928;53.936;27.540;2024-03-22T00:19:03;25.52;;;14.48;;
76608;SDS011;65928;53.936;27.540;2024-03-22T00:21:28;25.27;;;14.45;;
76608;SDS011;65928;53.936;27.540;2024-03-22T00:23:54;24.83;;;15.60;;
76608;SDS011;65928;53.936;27.540;2024-03-22T00:26:20;25.90;;;14.77;;
76608;SDS011;65928;53.936;27.540;2024-03-22T00:28:46;25.73;;;16.00;;
76608;SDS011;65928;53.936;27.540;2024-03-22T00:31:11;25.98;;;13.57;;
76608;SDS011;65928;53.936;27.540;2024-03-22T00:33:37;24.33;;;14.60;;
76608;SDS011;65928;53.936;27.540;2024-03-22T00:36:02;24.40;;;14.77;;
76608;SDS011;65928;53.936;27.540;2024-03-22T00:38:27;24.55;;;13.88;;
76608;SDS011;65928;53.936;27.540;2024-03-22T00:40:53;24.02;;;14.80;;
76608;SDS011;65928;53.936;27.540;2024-03-22T00:43:19;26.45;;;15.18;;
76608;SDS011;65928;53.936;27.540;2024-03-22T00:45:45;25.77;;;14.57;;
76608;SDS011;65928;53.936;27.540;2024-03-22T00:48:10;24.67;;;15.52;;
76608;SDS011;65928;53.936;27.540;2024-03-22T00:50:35;24.55;;;15.45;;
76608;SDS011;65928;53.936;27.540;2024-03-22T00:53:01;27.05;;;14.57;;
76608;SDS011;65928;53.936;27.540;2024-03-22T00:55:28;24.00;;;15.90;;
76608;SDS011;65928;53.936;27.540;2024-03-22T00:57:54;24.05;;;13.70;;
76608;SDS011;65928;53.936;27.540;2024-03-22T01:00:19;22.52;;;15.77;;
76608;SDS011;65928;53.936;27.540;2024-03-22T01:02:45;25.50;;;15.18;;
76608;SDS011;65928;53.936;27.540;2024-03-22T01:05:10;25.83;;;14.35;;
76608;SDS011;65928;53.936;27.540;2024-03-22T01:07:36;24.17;;;14.63;;
76608;SDS011;65928;53.936;27.540;2024-03-22T01:10:02;25.13;;;14.25;;
76608;SDS011;65928;53.936;27.540;2024-03-22T01:12:28;22.65;;;14.02;;
76608;SDS011;65928;53.936;27.540;2024-03-22T01:14:53;24.10;;;14.52;;
76608;SDS011;65928;53.936;27.540;2024-03-22T01:17:19;25.13;;;15.27;;
76608;SDS011;65928;53.936;27.540;2024-03-22T01:19:44;21.90;;;14.75;;
76608;SDS011;65928;53.936;27.540;2024-03-22T01:22:10;22.67;;;15.27;;
76608;SDS011;65928;53.936;27.540;2024-03-22T01:24:35;24.95;;;14.95;;
76608;SDS011;65928;53.936;27.540;2024-03-22T01:27:00;23.80;;;14.45;;
76608;SDS011;65928;53.936;27.540;2024-03-22T01:29:26;25.45;;;15.82;;
76608;SDS011;65928;53.936;27.540;2024-03-22T01:31:55;28.75;;;16.95;;
76608;SDS011;65928;53.936;27.540;2024-03-22T01:34:20;27.25;;;15.18;;
76608;SDS011;65928;53.936;27.540;2024-03-22T01:36:46;24.92;;;16.60;;
76608;SDS011;65928;53.936;27.540;2024-03-22T01:39:11;24.40;;;14.27;;
76608;SDS011;65928;53.936;27.540;2024-03-22T01:41:36;24.52;;;15.68;;
76608;SDS011;65928;53.936;27.540;2024-03-22T01:44:02;27.88;;;16.48;;
76608;SDS011;65928;53.936;27.540;2024-03-22T01:46:27;23.83;;;15.20;;
76608;SDS011;65928;53.936;27.540;2024-03-22T01:48:52;26.85;;;15.80;;
76608;SDS011;65928;53.936;27.540;2024-03-22T01:51:18;25.35;;;16.23;;
76608;SDS011;65928;53.936;27.540;2024-03-22T01:53:43;27.17;;;15.50;;
76608;SDS011;65928;53.936;27.540;2024-03-22T01:56:09;22.50;;;14.60;;
76608;SDS011;65928;53.936;27.540;2024-03-22T01:58:35;25.40;;;15.77;;
76608;SDS011;65928;53.936;27.540;2024-03-22T02:01:00;29.17;;;16.15;;
76608;SDS011;65928;53.936;27.540;2024-03-22T02:03:26;26.92;;;15.63;;
76608;SDS011;65928;53.936;27.540;2024-03-22T02:05:52;24.20;;;16.17;;
76608;SDS011;65928;53.936;27.540;2024-03-22T02:08:17;30.65;;;17.67;;
76608;SDS011;65928;53.936;27.540;2024-03-22T02:10:43;28.42;;;16.85;;
76608;SDS011;65928;53.936;27.540;2024-03-22T02:13:08;32.45;;;17.17;;
76608;SDS011;65928;53.936;27.540;2024-03-22T02:15:33;31.38;;;17.55;;
76608;SDS011;65928;53.936;27.540;2024-03-22T02:17:59;27.25;;;16.92;;
76608;SDS011;65928;53.936;27.540;2024-03-22T02:20:24;31.23;;;17.48;;
76608;SDS011;65928;53.936;27.540;2024-03-22T02:22:49;28.15;;;18.17;;
76608;SDS011;65928;53.936;27.540;2024-03-22T02:25:15;27.35;;;17.83;;
76608;SDS011;65928;53.936;27.540;2024-03-22T02:27:41;29.52;;;18.40;;
76608;SDS011;65928;53.936;27.540;2024-03-22T02:30:06;31.30;;;18.75;;
76608;SDS011;65928;53.936;27.540;2024-03-22T02:32:32;32.28;;;19.33;;
76608;SDS011;65928;53.936;27.540;2024-03-22T02:34:57;29.35;;;18.75;;
76608;SDS011;65928;53.936;27.540;2024-03-22T02:37:23;33.28;;;18.88;;
76608;SDS011;65928;53.936;27.540;2024-03-22T02:39:48;32.53;;;19.33;;
76608;SDS011;65928;53.936;27.540;2024-03-22T02:42:13;34.55;;;19.67;;
76608;SDS011;65928;53.936;27.540;2024-03-22T02:44:39;33.97;;;19.00;;
76608;SDS011;65928;53.936;27.540;2024-03-22T02:47:08;34.67;;;21.08;;
76608;SDS011;65928;53.936;27.540;2024-03-22T02:49:34;44.10;;;22.48;;
76608;SDS011;65928;53.936;27.540;2024-03-22T02:52:00;45.22;;;25.50;;
76608;SDS011;65928;53.936;27.540;2024-03-22T02:54:25;44.15;;;23.88;;
76608;SDS011;65928;53.936;27.540;2024-03-22T02:56:50;52.42;;;26.85;;
76608;SDS011;65928;53.936;27.540;2024-03-22T02:59:16;46.95;;;26.58;;
76608;SDS011;65928;53.936;27.540;2024-03-22T03:01:41;52.38;;;28.65;;
76608;SDS011;65928;53.936;27.540;2024-03-22T03:04:06;58.90;;;27.92;;
76608;SDS011;65928;53.936;27.540;2024-03-22T03:06:32;61.05;;;27.13;;
76608;SDS011;65928;53.936;27.540;2024-03-22T03:08:57;53.92;;;28.63;;
76608;SDS011;65928;53.936;27.540;2024-03-22T03:11:22;62.28;;;30.55;;
76608;SDS011;65928;53.936;27.540;2024-03-22T03:13:48;53.53;;;29.15;;
76608;SDS011;65928;53.936;27.540;2024-03-22T03:16:13;54.78;;;29.23;;
76608;SDS011;65928;53.936;27.540;2024-03-22T03:18:38;55.28;;;27.13;;
76608;SDS011;65928;53.936;27.540;2024-03-22T03:21:04;54.55;;;29.15;;
76608;SDS011;65928;53.936;27.540;2024-03-22T03:23:30;59.97;;;29.17;;
76608;SDS011;65928;53.936;27.540;2024-03-22T03:25:55;54.72;;;26.90;;
76608;SDS011;65928;53.936;27.540;2024-03-22T03:28:20;57.55;;;27.15;;
76608;SDS011;65928;53.936;27.540;2024-03-22T03:30:46;49.95;;;24.85;;
76608;SDS011;65928;53.936;27.540;2024-03-22T03:33:11;43.35;;;22.17;;
76608;SDS011;65928;53.936;27.540;2024-03-22T03:35:36;47.38;;;22.60;;
76608;SDS011;65928;53.936;27.540;2024-03-22T03:38:02;36.58;;;20.08;;
76608;SDS011;65928;53.936;27.540;2024-03-22T03:40:27;34.70;;;19.67;;
76608;SDS011;65928;53.936;27.540;2024-03-22T03:42:53;39.28;;;22.17;;
76608;SDS011;65928;53.936;27.540;2024-03-22T03:45:18;31.73;;;19.13;;
76608;SDS011;65928;53.936;27.540;2024-03-22T03:47:44;45.22;;;22.13;;
76608;SDS011;65928;53.936;27.540;2024-03-22T03:50:09;35.53;;;20.88;;
76608;SDS011;65928;53.936;27.540;2024-03-22T03:52:34;36.70;;;20.35;;
76608;SDS011;65928;53.936;27.540;2024-03-22T03:55:00;39.53;;;21.33;;
76608;SDS011;65928;53.936;27.540;2024-03-22T03:57:25;40.90;;;22.20;;
76608;SDS011;65928;53.936;27.540;2024-03-22T03:59:51;38.83;;;21.25;;
76608;SDS011;65928;53.936;27.540;2024-03-22T04:02:16;30.10;;;18.50;;
76608;SDS011;65928;53.936;27.540;2024-03-22T04:04:41;40.40;;;19.85;;
76608;SDS011;65928;53.936;27.540;2024-03-22T04:07:07;34.92;;;20.75;;
76608;SDS011;65928;53.936;27.540;2024-03-22T04:09:32;28.08;;;17.42;;
76608;SDS011;65928;53.936;27.540;2024-03-22T04:11:59;28.67;;;17.10;;
76608;SDS011;65928;53.936;27.540;2024-03-22T04:14:24;35.85;;;19.77;;
76608;SDS011;65928;53.936;27.540;2024-03-22T04:16:50;33.20;;;18.08;;
76608;SDS011;65928;53.936;27.540;2024-03-22T04:19:16;34.97;;;20.20;;
76608;SDS011;65928;53.936;27.540;2024-03-22T04:21:41;29.85;;;17.88;;
76608;SDS011;65928;53.936;27.540;2024-03-22T04:24:06;27.95;;;17.05;;
76608;SDS011;65928;53.936;27.540;2024-03-22T04:26:32;32.17;;;18.42;;
76608;SDS011;65928;53.936;27.540;2024-03-22T04:28:57;30.63;;;18.52;;
76608;SDS011;65928;53.936;27.540;2024-03-22T04:31:22;30.40;;;17.60;;
76608;SDS011;65928;53.936;27.540;2024-03-22T04:33:48;29.50;;;18.60;;
76608;SDS011;65928;53.936;27.540;2024-03-22T04:36:13;28.98;;;17.70;;
76608;SDS011;65928;53.936;27.540;2024-03-22T04:38:38;26.23;;;18.75;;
76608;SDS011;65928;53.936;27.540;2024-03-22T04:41:04;35.28;;;18.35;;
76608;SDS011;65928;53.936;27.540;2024-03-22T04:43:29;25.98;;;17.20;;
76608;SDS011;65928;53.936;27.540;2024-03-22T04:45:54;27.45;;;18.10;;
76608;SDS011;65928;53.936;27.540;2024-03-22T04:48:20;25.38;;;17.48;;
76608;SDS011;65928;53.936;27.540;2024-03-22T04:50:47;33.50;;;18.52;;
76608;SDS011;65928;53.936;27.540;2024-03-22T04:53:15;30.38;;;18.60;;
76608;SDS011;65928;53.936;27.540;2024-03-22T04:55:42;29.00;;;18.50;;
76608;SDS011;65928;53.936;27.540;2024-03-22T04:58:11;23.98;;;17.77;;
76608;SDS011;65928;53.936;27.540;2024-03-22T05:00:37;29.23;;;19.38;;
76608;SDS011;65928;53.936;27.540;2024-03-22T05:03:03;27.25;;;18.25;;
76608;SDS011;65928;53.936;27.540;2024-03-22T05:05:28;31.70;;;18.38;;
76608;SDS011;65928;53.936;27.540;2024-03-22T05:07:54;31.85;;;20.02;;
76608;SDS011;65928;53.936;27.540;2024-03-22T05:10:19;32.65;;;18.52;;
76608;SDS011;65928;53.936;27.540;2024-03-22T05:12:44;33.75;;;19.15;;
76608;SDS011;65928;53.936;27.540;2024-03-22T05:15:10;28.83;;;18.42;;
76608;SDS011;65928;53.936;27.540;2024-03-22T05:17:35;26.38;;;17.35;;
76608;SDS011;65928;53.936;27.540;2024-03-22T05:20:00;29.27;;;16.92;;
76608;SDS011;65928;53.936;27.540;2024-03-22T05:22:27;26.58;;;17.40;;
76608;SDS011;65928;53.936;27.540;2024-03-22T05:24:52;28.23;;;17.75;;
76608;SDS011;65928;53.936;27.540;2024-03-22T05:27:18;28.60;;;17.58;;
76608;SDS011;65928;53.936;27.540;2024-03-22T05:29:43;28.40;;;16.65;;
76608;SDS011;65928;53.936;27.540;2024-03-22T05:32:09;26.60;;;16.83;;
76608;SDS011;65928;53.936;27.540;2024-03-22T05:34:35;27.83;;;16.67;;
76608;SDS011;65928;53.936;27.540;2024-03-22T05:37:01;32.10;;;19.45;;
76608;SDS011;65928;53.936;27.540;2024-03-22T05:39:27;31.05;;;17.85;;
76608;SDS011;65928;53.936;27.540;2024-03-22T05:41:52;29.77;;;17.00;;
76608;SDS011;65928;53.936;27.540;2024-03-22T05:44:19;26.65;;;18.10;;
76608;SDS011;65928;53.936;27.540;2024-03-22T05:46:45;22.42;;;16.50;;
76608;SDS011;65928;53.936;27.540;2024-03-22T05:49:10;25.00;;;17.85;;
76608;SDS011;65928;53.936;27.540;2024-03-22T05:51:35;24.25;;;16.58;;
76608;SDS011;65928;53.936;27.540;2024-03-22T05:54:01;27.70;;;17.73;;
76608;SDS011;65928;53.936;27.540;2024-03-22T05:56:26;24.65;;;16.85;;
76608;SDS011;65928;53.936;27.540;2024-03-22T05:58:51;23.63;;;17.05;;
76608;SDS011;65928;53.936;27.540;2024-03-22T06:01:17;25.83;;;16.27;;
76608;SDS011;65928;53.936;27.540;2024-03-22T06:03:42;20.40;;;14.48;;
76608;SDS011;65928;53.936;27.540;2024-03-22T06:06:07;24.80;;;16.83;;
76608;SDS011;65928;53.936;27.540;2024-03-22T06:08:33;20.00;;;15.75;;
76608;SDS011;65928;53.936;27.540;2024-03-22T06:10:59;22.17;;;15.88;;
76608;SDS011;65928;53.936;27.540;2024-03-22T06:13:25;21.75;;;15.68;;
76608;SDS011;65928;53.936;27.540;2024-03-22T06:15:50;22.60;;;15.77;;
76608;SDS011;65928;53.936;27.540;2024-03-22T06:18:16;24.80;;;15.60;;
76608;SDS011;65928;53.936;27.540;2024-03-22T06:20:41;18.05;;;13.07;;
76608;SDS011;65928;53.936;27.540;2024-03-22T06:23:07;22.02;;;14.85;;
76608;SDS011;65928;53.936;27.540;2024-03-22T06:25:33;25.30;;;15.38;;
76608;SDS011;65928;53.936;27.540;2024-03-22T06:27:59;23.45;;;15.45;;
76608;SDS011;65928;53.936;27.540;2024-03-22T06:30:24;19.30;;;14.52;;
76608;SDS011;65928;53.936;27.540;2024-03-22T06:32:49;21.15;;;14.27;;
76608;SDS011;65928;53.936;27.540;2024-03-22T06:35:15;20.88;;;14.75;;
76608;SDS011;65928;53.936;27.540;2024-03-22T06:37:40;21.67;;;15.10;;
76608;SDS011;65928;53.936;27.540;2024-03-22T06:40:06;19.52;;;14.73;;
76608;SDS011;65928;53.936;27.540;2024-03-22T06:42:32;23.92;;;15.43;;
76608;SDS011;65928;53.936;27.540;2024-03-22T06:44:58;22.83;;;16.52;;
76608;SDS011;65928;53.936;27.540;2024-03-22T06:47:23;25.90;;;16.60;;
76608;SDS011;65928;53.936;27.540;2024-03-22T06:49:49;23.58;;;16.27;;
76608;SDS011;65928;53.936;27.540;2024-03-22T06:52:14;26.00;;;16.80;;
76608;SDS011;65928;53.936;27.540;2024-03-22T06:54:40;24.20;;;16.65;;
76608;SDS011;65928;53.936;27.540;2024-03-22T06:57:05;26.15;;;16.83;;
76608;SDS011;65928;53.936;27.540;2024-03-22T06:59:31;28.70;;;17.60;;
76608;SDS011;65928;53.936;27.540;2024-03-22T07:01:56;30.90;;;20.40;;
76608;SDS011;65928;53.936;27.540;2024-03-22T07:04:22;28.90;;;18.42;;
76608;SDS011;65928;53.936;27.540;2024-03-22T07:06:48;30.42;;;18.90;;
76608;SDS011;65928;53.936;27.540;2024-03-22T07:09:13;33.70;;;20.80;;
76608;SDS011;65928;53.936;27.540;2024-03-22T07:11:39;30.88;;;19.92;;
76608;SDS011;65928;53.936;27.540;2024-03-22T07:14:04;29.52;;;18.45;;
76608;SDS011;65928;53.936;27.540;2024-03-22T07:16:30;33.53;;;18.65;;
76608;SDS011;65928;53.936;27.540;2024-03-22T07:18:55;53.75;;;37.30;;
76608;SDS011;65928;53.936;27.540;2024-03-22T07:21:20;34.33;;;22.42;;
76608;SDS011;65928;53.936;27.540;2024-03-22T07:23:46;34.75;;;20.92;;
76608;SDS011;65928;53.936;27.540;2024-03-22T07:26:11;33.78;;;21.42;;
76608;SDS011;65928;53.936;27.540;2024-03-22T07:28:37;31.88;;;20.25;;
76608;SDS011;65928;53.936;27.540;2024-03-22T07:31:02;34.03;;;18.65;;
76608;SDS011;65928;53.936;27.540;2024-03-22T07:33:28;32.67;;;19.48;;
76608;SDS011;65928;53.936;27.540;2024-03-22T07:35:53;30.10;;;20.90;;
76608;SDS011;65928;53.936;27.540;2024-03-22T07:38:19;33.60;;;21.73;;
76608;SDS011;65928;53.936;27.540;2024-03-22T07:40:45;35.38;;;21.20;;
76608;SDS011;65928;53.936;27.540;2024-03-22T07:43:10;28.92;;;20.00;;
76608;SDS011;65928;53.936;27.540;2024-03-22T07:45:36;32.20;;;20.75;;
76608;SDS011;65928;53.936;27.540;2024-03-22T07:48:02;27.60;;;17.77;;
76608;SDS011;65928;53.936;27.540;2024-03-22T07:50:28;28.45;;;20.08;;
76608;SDS011;65928;53.936;27.540;2024-03-22T07:52:53;28.40;;;19.40;;
76608;SDS011;65928;53.936;27.540;2024-03-22T07:55:19;33.65;;;19.90;;
76608;SDS011;65928;53.936;27.540;2024-03-22T07:57:44;27.60;;;20.05;;
76608;SDS011;65928;53.936;27.540;2024-03-22T08:00:10;29.73;;;19.35;;
76608;SDS011;65928;53.936;27.540;2024-03-22T08:02:35;28.85;;;19.90;;
76608;SDS011;65928;53.936;27.540;2024-03-22T08:05:01;31.40;;;18.77;;
76608;SDS011;65928;53.936;27.540;2024-03-22T08:07:27;25.10;;;18.23;;
76608;SDS011;65928;53.936;27.540;2024-03-22T08:09:52;24.38;;;16.38;;
76608;SDS011;65928;53.936;27.540;2024-03-22T08:12:18;27.63;;;18.33;;
76608;SDS011;65928;53.936;27.540;2024-03-22T08:14:44;27.92;;;18.30;;
76608;SDS011;65928;53.936;27.540;2024-03-22T08:17:10;31.02;;;18.67;;
76608;SDS011;65928;53.936;27.540;2024-03-22T08:19:36;27.33;;;18.92;;
76608;SDS011;65928;53.936;27.540;2024-03-22T08:22:03;28.73;;;19.13;;
76608;SDS011;65928;53.936;27.540;2024-03-22T08:24:28;35.78;;;20.48;;
76608;SDS011;65928;53.936;27.540;2024-03-22T08:26:54;29.60;;;19.42;;
76608;SDS011;65928;53.936;27.540;2024-03-22T08:29:20;30.15;;;19.50;;
76608;SDS011;65928;53.936;27.540;2024-03-22T08:31:46;27.88;;;19.08;;
76608;SDS011;65928;53.936;27.540;2024-03-22T08:34:11;29.27;;;18.98;;
76608;SDS011;65928;53.936;27.540;2024-03-22T08:36:37;30.70;;;18.33;;
76608;SDS011;65928;53.936;27.540;2024-03-22T08:39:02;28.92;;;17.48;;
76608;SDS011;65928;53.936;27.540;2024-03-22T08:41:28;27.58;;;17.67;;
76608;SDS011;65928;53.936;27.540;2024-03-22T08:43:53;28.05;;;17.80;;
76608;SDS011;65928;53.936;27.540;2024-03-22T08:46:18;30.98;;;17.73;;
76608;SDS011;65928;53.936;27.540;2024-03-22T08:48:46;28.67;;;17.77;;
76608;SDS011;65928;53.936;27.540;2024-03-22T08:51:11;24.00;;;16.88;;
76608;SDS011;65928;53.936;27.540;2024-03-22T08:53:37;24.48;;;17.13;;
76608;SDS011;65928;53.936;27.540;2024-03-22T08:56:02;27.02;;;19.77;;
76608;SDS011;65928;53.936;27.540;2024-03-22T08:58:28;26.40;;;17.00;;
76608;SDS011;65928;53.936;27.540;2024-03-22T09:00:53;23.77;;;16.80;;
76608;SDS011;65928;53.936;27.540;2024-03-22T09:03:19;25.45;;;17.83;;
76608;SDS011;65928;53.936;27.540;2024-03-22T09:05:46;24.30;;;18.05;;
76608;SDS011;65928;53.936;27.540;2024-03-22T09:08:12;26.55;;;19.23;;
76608;SDS011;65928;53.936;27.540;2024-03-22T09:10:37;29.95;;;18.20;;
76608;SDS011;65928;53.936;27.540;2024-03-22T09:13:02;27.40;;;18.65;;
76608;SDS011;65928;53.936;27.540;2024-03-22T09:15:28;25.98;;;18.55;;
76608;SDS011;65928;53.936;27.540;2024-03-22T09:17:53;27.05;;;18.75;;
76608;SDS011;65928;53.936;27.540;2024-03-22T09:20:19;26.02;;;18.30;;
76608;SDS011;65928;53.936;27.540;2024-03-22T09:22:44;21.52;;;16.25;;
76608;SDS011;65928;53.936;27.540;2024-03-22T09:25:10;22.83;;;16.98;;
76608;SDS011;65928;53.936;27.540;2024-03-22T09:27:35;24.02;;;16.70;;
76608;SDS011;65928;53.936;27.540;2024-03-22T09:30:00;23.98;;;16.70;;
76608;SDS011;65928;53.936;27.540;2024-03-22T09:32:29;19.20;;;15.57;;
76608;SDS011;65928;53.936;27.540;2024-03-22T09:34:54;24.73;;;16.90;;
76608;SDS011;65928;53.936;27.540;2024-03-22T09:37:19;20.75;;;14.77;;
76608;SDS011;65928;53.936;27.540;2024-03-22T09:39:45;26.13;;;16.67;;
76608;SDS011;65928;53.936;27.540;2024-03-22T09:42:11;21.25;;;15.10;;
76608;SDS011;65928;53.936;27.540;2024-03-22T09:44:38;19.90;;;15.32;;
76608;SDS011;65928;53.936;27.540;2024-03-22T09:47:05;19.88;;;14.27;;
76608;SDS011;65928;53.936;27.540;2024-03-22T09:49:30;26.85;;;16.08;;
76608;SDS011;65928;53.936;27.540;2024-03-22T09:51:56;16.42;;;14.52;;
76608;SDS011;65928;53.936;27.540;2024-03-22T09:54:23;23.15;;;16.75;;
76608;SDS011;65928;53.936;27.540;2024-03-22T09:56:49;22.20;;;15.20;;
76608;SDS011;65928;53.936;27.540;2024-03-22T09:59:15;17.80;;;13.95;;
76608;SDS011;65928;53.936;27.540;2024-03-22T10:01:40;23.33;;;13.98;;
76608;SDS011;65928;53.936;27.540;2024-03-22T10:04:06;19.92;;;15.05;;
76608;SDS011;65928;53.936;27.540;2024-03-22T10:06:32;21.58;;;14.55;;
76608;SDS011;65928;53.936;27.540;2024-03-22T10:08:58;20.75;;;14.18;;
76608;SDS011;65928;53.936;27.540;2024-03-22T10:11:25;16.48;;;12.02;;
76608;SDS011;65928;53.936;27.540;2024-03-22T10:13:51;21.92;;;13.93;;
76608;SDS011;65928;53.936;27.540;2024-03-22T10:16:17;18.05;;;11.93;;
76608;SDS011;65928;53.936;27.540;2024-03-22T10:18:42;17.42;;;11.50;;
76608;SDS011;65928;53.936;27.540;2024-03-22T10:21:08;15.38;;;11.77;;
76608;SDS011;65928;53.936;27.540;2024-03-22T10:23:33;18.17;;;12.73;;
76608;SDS011;65928;53.936;27.540;2024-03-22T10:25:59;18.42;;;13.70;;
76608;SDS011;65928;53.936;27.540;2024-03-22T10:28:28;18.75;;;12.45;;
76608;SDS011;65928;53.936;27.540;2024-03-22T10:30:53;20.17;;;14.02;;
76608;SDS011;65928;53.936;27.540;2024-03-22T10:33:20;21.95;;;14.30;;
76608;SDS011;65928;53.936;27.540;2024-03-22T10:35:47;18.38;;;13.18;;
76608;SDS011;65928;53.936;27.540;2024-03-22T10:38:16;17.67;;;12.13;;
76608;SDS011;65928;53.936;27.540;2024-03-22T10:40:44;18.50;;;11.93;;
76608;SDS011;65928;53.936;27.540;2024-03-22T10:43:11;19.33;;;13.18;;
76608;SDS011;65928;53.936;27.540;2024-03-22T10:45:37;21.63;;;12.93;;
76608;SDS011;65928;53.936;27.540;2024-03-22T10:48:03;17.40;;;12.13;;
76608;SDS011;65928;53.936;27.540;2024-03-22T10:50:34;25.67;;;13.13;;
76608;SDS011;65928;53.936;27.540;2024-03-22T10:53:04;19.63;;;12.80;;
76608;SDS011;65928;53.936;27.540;2024-03-22T10:55:33;17.23;;;12.13;;
76608;SDS011;65928;53.936;27.540;2024-03-22T10:57:59;19.88;;;12.23;;
76608;SDS011;65928;53.936;27.540;2024-03-22T11:00:28;17.27;;;12.30;;
76608;SDS011;65928;53.936;27.540;2024-03-22T11:02:54;18.80;;;12.02;;
76608;SDS011;65928;53.936;27.540;2024-03-22T11:05:20;18.73;;;12.63;;
76608;SDS011;65928;53.936;27.540;2024-03-22T11:07:45;15.90;;;11.63;;
76608;SDS011;65928;53.936;27.540;2024-03-22T11:10:11;16.23;;;11.07;;
76608;SDS011;65928;53.936;27.540;2024-03-22T11:12:37;17.88;;;12.05;;
76608;SDS011;65928;53.936;27.540;2024-03-22T11:15:04;16.75;;;12.05;;
76608;SDS011;65928;53.936;27.540;2024-03-22T11:17:29;19.15;;;12.00;;
76608;SDS011;65928;53.936;27.540;2024-03-22T11:19:55;20.42;;;12.80;;
76608;SDS011;65928;53.936;27.540;2024-03-22T11:22:20;19.52;;;12.85;;
76608;SDS011;65928;53.936;27.540;2024-03-22T11:24:46;17.52;;;12.25;;
76608;SDS011;65928;53.936;27.540;2024-03-22T11:27:11;43.88;;;15.65;;
76608;SDS011;65928;53.936;27.540;2024-03-22T11:29:37;18.33;;;12.85;;
76608;SDS011;65928;53.936;27.540;2024-03-22T11:32:09;18.33;;;12.60;;
76608;SDS011;65928;53.936;27.540;2024-03-22T11:34:35;18.23;;;11.60;;
76608;SDS011;65928;53.936;27.540;2024-03-22T11:37:01;18.63;;;12.77;;
76608;SDS011;65928;53.936;27.540;2024-03-22T11:39:27;18.70;;;12.43;;
76608;SDS011;65928;53.936;27.540;2024-03-22T11:41:52;17.33;;;12.25;;
76608;SDS011;65928;53.936;27.540;2024-03-22T11:44:18;19.25;;;12.52;;
76608;SDS011;65928;53.936;27.540;2024-03-22T11:46:44;17.23;;;11.75;;
76608;SDS011;65928;53.936;27.540;2024-03-22T11:49:10;19.90;;;12.70;;
76608;SDS011;65928;53.936;27.540;2024-03-22T11:51:35;17.90;;;12.35;;
76608;SDS011;65928;53.936;27.540;2024-03-22T11:54:02;18.60;;;11.80;;
76608;SDS011;65928;53.936;27.540;2024-03-22T11:56:28;17.73;;;12.02;;
76608;SDS011;65928;53.936;27.540;2024-03-22T11:58:59;18.25;;;12.57;;
76608;SDS011;65928;53.936;27.540;2024-03-22T12:01:25;19.25;;;12.75;;
76608;SDS011;65928;53.936;27.540;2024-03-22T12:03:51;17.20;;;12.93;;
76608;SDS011;65928;53.936;27.540;2024-03-22T12:06:16;20.00;;;12.63;;
76608;SDS011;65928;53.936;27.540;2024-03-22T12:08:42;17.48;;;11.43;;
76608;SDS011;65928;53.936;27.540;2024-03-22T12:11:07;19.15;;;12.27;;
76608;SDS011;65928;53.936;27.540;2024-03-22T12:13:33;18.05;;;11.98;;
76608;SDS011;65928;53.936;27.540;2024-03-22T12:15:59;17.67;;;11.50;;
76608;SDS011;65928;53.936;27.540;2024-03-22T12:18:24;19.27;;;11.95;;
76608;SDS011;65928;53.936;27.540;2024-03-22T12:20:49;21.30;;;12.02;;
76608;SDS011;65928;53.936;27.540;2024-03-22T12:23:15;19.27;;;12.00;;
76608;SDS011;65928;53.936;27.540;2024-03-22T12:25:40;15.20;;;8.95;;
76608;SDS011;65928;53.936;27.540;2024-03-22T12:28:06;17.35;;;11.45;;
76608;SDS011;65928;53.936;27.540;2024-03-22T12:30:31;17.50;;;11.80;;
76608;SDS011;65928;53.936;27.540;2024-03-22T12:32:57;17.55;;;12.32;;
76608;SDS011;65928;53.936;27.540;2024-03-22T12:35:22;17.38;;;11.93;;
76608;SDS011;65928;53.936;27.540;2024-03-22T12:37:47;16.40;;;12.15;;
76608;SDS011;65928;53.936;27.540;2024-03-22T12:40:13;18.15;;;13.80;;
76608;SDS011;65928;53.936;27.540;2024-03-22T12:42:39;14.32;;;9.73;;
76608;SDS011;65928;53.936;27.540;2024-03-22T12:45:05;23.10;;;12.52;;
76608;SDS011;65928;53.936;27.540;2024-03-22T12:47:32;18.73;;;13.68;;
76608;SDS011;65928;53.936;27.540;2024-03-22T12:49:57;21.77;;;14.40;;
76608;SDS011;65928;53.936;27.540;2024-03-22T12:52:23;18.67;;;13.45;;
76608;SDS011;65928;53.936;27.540;2024-03-22T12:54:48;17.83;;;13.15;;
76608;SDS011;65928;53.936;27.540;2024-03-22T12:57:13;21.48;;;14.45;;
76608;SDS011;65928;53.936;27.540;2024-03-22T12:59:39;20.52;;;13.30;;
76608;SDS011;65928;53.936;27.540;2024-03-22T13:02:04;20.63;;;14.38;;
76608;SDS011;65928;53.936;27.540;2024-03-22T13:04:29;21.58;;;13.95;;
76608;SDS011;65928;53.936;27.540;2024-03-22T13:06:55;21.45;;;14.65;;
76608;SDS011;65928;53.936;27.540;2024-03-22T13:09:20;23.95;;;14.27;;
76608;SDS011;65928;53.936;27.540;2024-03-22T13:11:47;23.40;;;14.90;;
76608;SDS011;65928;53.936;27.540;2024-03-22T13:14:13;19.20;;;13.88;;
76608;SDS011;65928;53.936;27.540;2024-03-22T13:16:39;21.17;;;14.18;;
76608;SDS011;65928;53.936;27.540;2024-03-22T13:19:04;24.35;;;13.88;;
76608;SDS011;65928;53.936;27.540;2024-03-22T13:21:32;19.83;;;14.13;;
76608;SDS011;65928;53.936;27.540;2024-03-22T13:23:58;18.20;;;13.02;;
76608;SDS011;65928;53.936;27.540;2024-03-22T13:26:23;20.63;;;14.48;;
76608;SDS011;65928;53.936;27.540;2024-03-22T13:28:48;19.35;;;13.93;;
76608;SDS011;65928;53.936;27.540;2024-03-22T13:31:14;18.35;;;9.80;;
76608;SDS011;65928;53.936;27.540;2024-03-22T13:33:40;18.67;;;13.32;;
76608;SDS011;65928;53.936;27.540;2024-03-22T13:36:05;25.83;;;14.35;;
76608;SDS011;65928;53.936;27.540;2024-03-22T13:38:31;18.15;;;13.48;;
76608;SDS011;65928;53.936;27.540;2024-03-22T13:40:57;21.88;;;14.38;;
76608;SDS011;65928;53.936;27.540;2024-03-22T13:43:22;21.38;;;15.00;;
76608;SDS011;65928;53.936;27.540;2024-03-22T13:45:51;22.33;;;13.90;;
76608;SDS011;65928;53.936;27.540;2024-03-22T13:48:19;14.60;;;10.95;;
76608;SDS011;65928;53.936;27.540;2024-03-22T13:50:46;16.52;;;13.55;;
76608;SDS011;65928;53.936;27.540;2024-03-22T13:53:11;17.40;;;12.95;;
76608;SDS011;65928;53.936;27.540;2024-03-22T13:55:36;21.80;;;14.52;;
76608;SDS011;65928;53.936;27.540;2024-03-22T13:58:02;22.02;;;14.77;;
76608;SDS011;65928;53.936;27.540;2024-03-22T14:00:27;18.48;;;12.70;;